Time;durP1;ratioP1;P1;durP2;ratioP2;P2;SDS_P1;SDS_P2;PMS_P1;PMS_P2;Temp;Humidity;BMP_temperature;BMP_pressure;BME280_temperature;BME280_humidity;BME280_pressure;Samples;Min_cycle;Max_cycle;Signal;HPM_P1;HPM_P2
2023/12/30 00:00:48;;;;;;;;;;;;;;;15.87;50.51;101164.66;5078414;28;1183;-58
2023/12/30 00:03:14;;;;;;;;;;;;;;;15.62;51.25;101159.72;5059284;28;1040;-57
2023/12/30 00:05:39;;;;;;;;;;;;;;;15.57;51.26;101163.25;5072017;28;1060;-57
2023/12/30 00:08:05;;;;;;;;;;;;;;;17.20;47.59;101160.41;5077910;28;1191;-57
2023/12/30 00:10:31;;;;;;;;;;;;;;;17.18;47.14;101168.94;5078638;28;1032;-57
2023/12/30 00:12:56;;;;;;;;;;;;;;;16.36;49.39;101160.16;5078369;28;1043;-57
2023/12/30 00:15:22;;;;;;;;;;;;;;;16.03;50.11;101168.41;5078326;28;1974;-57
2023/12/30 00:17:48;;;;;;;;;;;;;;;15.74;51.00;101162.31;5059086;28;992;-57
2023/12/30 00:20:13;;;;;;;;;;;;;;;16.93;48.29;101162.22;5058549;28;1059;-58
2023/12/30 00:22:39;;;;;;;;;;;;;;;17.26;47.10;101156.56;5077708;28;1055;-57
2023/12/30 00:25:04;;;;;;;;;;;;;;;16.33;49.38;101156.03;5065310;28;2871;-57
2023/12/30 00:27:30;;;;;;;;;;;;;;;15.96;50.41;101156.78;5040145;28;1353;-56
2023/12/30 00:29:56;;;;;;;;;;;;;;;15.72;50.81;101162.59;5053019;28;1296;-56
2023/12/30 00:32:21;;;;;;;;;;;;;;;15.66;51.12;101163.59;5060251;28;1230;-56
2023/12/30 00:34:47;;;;;;;;;;;;;;;17.21;47.38;101164.81;5078362;28;1087;-56
2023/12/30 00:37:18;;;;;;;;;;;;;;;16.92;47.88;101167.97;5059990;28;1910;-56
2023/12/30 00:39:44;;;;;;;;;;;;;;;16.21;49.78;101163.59;5059583;28;1039;-57
2023/12/30 00:42:10;;;;;;;;;;;;;;;15.85;50.55;101169.59;5046751;28;1190;-57
2023/12/30 00:44:35;;;;;;;;;;;;;;;15.68;50.90;101172.41;5071277;28;1068;-58
2023/12/30 00:47:01;;;;;;;;;;;;;;;16.43;49.40;101160.75;5060074;28;1127;-58
2023/12/30 00:49:26;;;;;;;;;;;;;;;17.63;46.34;101163.84;5077910;28;1012;-59
2023/12/30 00:51:52;;;;;;;;;;;;;;;16.78;48.30;101156.59;5053174;28;1524;-58
2023/12/30 00:54:18;;;;;;;;;;;;;;;16.18;49.71;101166.88;5051419;28;2332;-57
2023/12/30 00:56:43;;;;;;;;;;;;;;;15.79;50.83;101161.53;5064587;28;1984;-58
2023/12/30 00:59:09;;;;;;;;;;;;;;;15.77;50.99;101158.22;5077755;28;980;-58
2023/12/30 01:01:34;;;;;;;;;;;;;;;17.34;46.93;101153.31;5077622;28;1114;-58
2023/12/30 01:04:00;;;;;;;;;;;;;;;16.76;48.21;101161.53;5064580;28;1083;-58
2023/12/30 01:06:26;;;;;;;;;;;;;;;16.13;49.60;101155.84;5062708;28;906;-59
2023/12/30 01:08:51;;;;;;;;;;;;;;;15.88;50.33;101154.53;5071315;28;1071;-58
2023/12/30 01:11:17;;;;;;;;;;;;;;;15.54;51.21;101152.78;5059858;28;1536;-57
2023/12/30 01:13:42;;;;;;;;;;;;;;;16.88;48.11;101153.94;5077314;28;1146;-57
2023/12/30 01:16:08;;;;;;;;;;;;;;;17.54;46.47;101151.72;5077361;28;1906;-57
2023/12/30 01:18:34;;;;;;;;;;;;;;;16.35;49.02;101140.09;5075532;28;896;-57
2023/12/30 01:20:59;;;;;;;;;;;;;;;16.01;50.16;101131.34;5070014;28;1130;-57
2023/12/30 01:23:25;;;;;;;;;;;;;;;15.71;50.90;101128.03;5052501;28;2477;-57
2023/12/30 01:25:50;;;;;;;;;;;;;;;15.64;50.86;101135.63;5077119;28;1122;-57
2023/12/30 01:28:16;;;;;;;;;;;;;;;16.68;48.81;101129.09;5077212;28;1062;-57
2023/12/30 01:30:42;;;;;;;;;;;;;;;17.60;46.15;101134.16;5068037;28;1134;-57
2023/12/30 01:33:07;;;;;;;;;;;;;;;16.58;48.46;101135.34;5076773;28;1079;-57
2023/12/30 01:35:33;;;;;;;;;;;;;;;15.95;50.20;101122.25;5059243;28;1979;-57
2023/12/30 01:37:58;;;;;;;;;;;;;;;15.75;50.78;101122.81;5064182;28;1024;-57
2023/12/30 01:40:27;;;;;;;;;;;;;;;15.62;51.07;101126.81;5062703;28;1063;-57
2023/12/30 01:42:53;;;;;;;;;;;;;;;17.24;47.27;101129.38;5058321;28;1115;-57
2023/12/30 01:45:19;;;;;;;;;;;;;;;17.32;46.57;101124.44;5071068;28;1070;-58
2023/12/30 01:47:44;;;;;;;;;;;;;;;16.38;49.08;101127.78;5051249;28;1123;-57
2023/12/30 01:50:10;;;;;;;;;;;;;;;15.99;49.96;101128.88;5053226;28;1205;-57
2023/12/30 01:52:36;;;;;;;;;;;;;;;15.73;50.88;101128.56;5069115;28;1007;-57
2023/12/30 01:55:02;;;;;;;;;;;;;;;16.15;49.82;101127.06;5075246;28;1902;-57
2023/12/30 01:57:27;;;;;;;;;;;;;;;17.55;46.23;101123.13;5029949;28;1147;-57
2023/12/30 01:59:53;;;;;;;;;;;;;;;16.59;48.54;101123.25;5057837;28;1165;-57
2023/12/30 02:02:21;;;;;;;;;;;;;;;16.10;49.74;101117.97;5058855;28;1292;-57
2023/12/30 02:04:46;;;;;;;;;;;;;;;15.76;50.57;101123.69;5076031;28;1083;-57
2023/12/30 02:07:12;;;;;;;;;;;;;;;15.67;51.14;101128.78;5058921;28;1189;-57
2023/12/30 02:09:38;;;;;;;;;;;;;;;17.24;47.26;101129.38;5043785;28;1598;-57
2023/12/30 02:12:04;;;;;;;;;;;;;;;16.95;47.66;101134.47;5046735;28;1223;-58
2023/12/30 02:14:30;;;;;;;;;;;;;;;16.22;49.38;101126.84;5056765;28;1217;-58
2023/12/30 02:16:56;;;;;;;;;;;;;;;15.86;50.22;101132.84;5046088;28;2286;-58
2023/12/30 02:19:22;;;;;;;;;;;;;;;15.62;50.75;101123.25;5040411;28;1111;-58
2023/12/30 02:21:47;;;;;;;;;;;;;;;15.43;51.22;101131.00;5058015;28;1918;-57
2023/12/30 02:24:13;;;;;;;;;;;;;;;16.97;47.67;101129.53;5070905;28;2511;-58
2023/12/30 02:26:39;;;;;;;;;;;;;;;17.05;47.45;101122.69;5068486;28;1051;-57
2023/12/30 02:29:05;;;;;;;;;;;;;;;16.20;49.57;101123.53;5062556;28;1059;-57
2023/12/30 02:31:31;;;;;;;;;;;;;;;15.84;50.50;101124.06;5069469;28;934;-58
2023/12/30 02:33:56;;;;;;;;;;;;;;;15.54;50.99;101124.53;5071091;28;1115;-58
2023/12/30 02:36:22;;;;;;;;;;;;;;;16.54;48.71;101125.97;5067812;28;1993;-58
2023/12/30 02:38:48;;;;;;;;;;;;;;;17.64;46.07;101121.50;5069513;28;1135;-58
2023/12/30 02:41:13;;;;;;;;;;;;;;;16.55;48.53;101120.22;5038030;28;1194;-58
2023/12/30 02:43:58;;;;;;;;;;;;;;;16.02;49.76;101117.34;5074465;28;1218;-58
2023/12/30 02:46:24;;;;;;;;;;;;;;;15.73;50.43;101117.59;5026512;28;1115;-58
2023/12/30 02:48:49;;;;;;;;;;;;;;;16.19;49.86;101119.16;5037963;28;1661;-57
2023/12/30 02:51:15;;;;;;;;;;;;;;;17.55;46.23;101125.88;5053226;28;1150;-58
2023/12/30 02:53:41;;;;;;;;;;;;;;;16.67;48.04;101122.75;5057347;28;2110;-58
2023/12/30 02:56:07;;;;;;;;;;;;;;;16.14;49.59;101121.84;5075899;28;1982;-58
2023/12/30 02:58:34;;;;;;;;;;;;;;;15.76;50.36;101129.97;5075424;28;1078;-57
2023/12/30 03:00:59;;;;;;;;;;;;;;;16.00;50.05;101126.94;5044821;28;1205;-57
2023/12/30 03:03:25;;;;;;;;;;;;;;;17.47;46.65;101137.41;5049173;28;1075;-58
2023/12/30 03:05:50;;;;;;;;;;;;;;;16.75;47.86;101127.75;5052721;28;1117;-57
2023/12/30 03:08:16;;;;;;;;;;;;;;;16.17;49.69;101122.16;5075743;28;1012;-57
2023/12/30 03:10:41;;;;;;;;;;;;;;;15.84;50.38;101131.47;5061975;28;1079;-57
2023/12/30 03:13:07;;;;;;;;;;;;;;;15.60;50.91;101131.75;5076075;28;1107;-57
2023/12/30 03:15:33;;;;;;;;;;;;;;;16.92;48.03;101143.25;5057202;28;1898;-57
2023/12/30 03:17:58;;;;;;;;;;;;;;;17.18;46.80;101129.63;5075658;28;1107;-57
2023/12/30 03:20:24;;;;;;;;;;;;;;;16.24;49.09;101132.88;5073401;28;1051;-57
2023/12/30 03:22:50;;;;;;;;;;;;;;;15.91;50.01;101130.16;5064839;28;1096;-56
2023/12/30 03:25:16;;;;;;;;;;;;;;;15.60;50.85;101129.00;5073446;28;2287;-57
2023/12/30 03:27:42;;;;;;;;;;;;;;;16.56;48.53;101140.25;5064766;28;1171;-56
2023/12/30 03:30:07;;;;;;;;;;;;;;;17.57;45.96;101141.03;5056375;28;1122;-56
2023/12/30 03:32:33;;;;;;;;;;;;;;;16.48;48.71;101146.22;5075647;28;991;-57
2023/12/30 03:34:59;;;;;;;;;;;;;;;16.00;49.88;101149.69;5074962;28;1028;-56
2023/12/30 03:37:24;;;;;;;;;;;;;;;15.79;50.41;101148.69;5067669;28;1974;-58
2023/12/30 03:39:51;;;;;;;;;;;;;;;15.71;50.71;101149.09;5050669;28;1143;-57
2023/12/30 03:42:17;;;;;;;;;;;;;;;17.24;47.16;101147.78;5063567;28;1100;-57
2023/12/30 03:44:43;;;;;;;;;;;;;;;17.03;47.06;101150.44;5076870;28;1098;-57
2023/12/30 03:47:08;;;;;;;;;;;;;;;16.19;49.16;101154.81;5041317;28;1102;-57
2023/12/30 03:49:34;;;;;;;;;;;;;;;15.87;50.02;101158.38;5072606;28;989;-57
2023/12/30 03:51:59;;;;;;;;;;;;;;;15.68;50.41;101161.44;5049198;28;1201;-57
2023/12/30 03:54:25;;;;;;;;;;;;;;;16.41;48.98;101163.75;5077898;28;1816;-57
2023/12/30 03:56:51;;;;;;;;;;;;;;;17.64;45.97;101160.00;5079060;28;1981;-57
2023/12/30 03:59:16;;;;;;;;;;;;;;;16.70;48.11;101171.63;5078910;28;1053;-57
2023/12/30 04:01:42;;;;;;;;;;;;;;;16.15;49.54;101159.16;5078776;28;881;-57
2023/12/30 04:04:08;;;;;;;;;;;;;;;15.83;50.27;101168.19;5078409;28;1067;-58
2023/12/30 04:06:33;;;;;;;;;;;;;;;15.73;50.68;101166.97;5078124;28;1201;-57
2023/12/30 04:08:59;;;;;;;;;;;;;;;17.31;46.68;101170.34;5060467;28;1179;-58
2023/12/30 04:11:25;;;;;;;;;;;;;;;17.21;46.86;101171.13;5078768;28;1019;-59
2023/12/30 04:13:50;;;;;;;;;;;;;;;16.30;48.84;101173.00;5046275;28;1216;-58
2023/12/30 04:16:16;;;;;;;;;;;;;;;15.94;50.09;101175.44;5048148;28;1918;-58
2023/12/30 04:18:42;;;;;;;;;;;;;;;15.72;50.24;101169.97;5046462;28;1122;-57
2023/12/30 04:21:08;;;;;;;;;;;;;;;16.95;47.77;101178.41;5041015;28;1285;-59
2023/12/30 04:23:35;;;;;;;;;;;;;;;17.35;46.30;101187.97;5068284;28;1821;-58
2023/12/30 04:26:01;;;;;;;;;;;;;;;16.47;48.53;101177.53;5078536;28;1077;-58
2023/12/30 04:28:26;;;;;;;;;;;;;;;15.94;50.03;101178.19;5059377;28;1122;-59
2023/12/30 04:30:52;;;;;;;;;;;;;;;15.68;50.50;101166.94;5071438;28;1260;-59
2023/12/30 04:33:17;;;;;;;;;;;;;;;15.94;49.96;101174.63;5065105;28;1097;-60
2023/12/30 04:35:43;;;;;;;;;;;;;;;17.45;46.19;101173.44;5059724;28;1909;-60
2023/12/30 04:38:08;;;;;;;;;;;;;;;16.84;47.58;101182.16;5064258;28;1201;-58
2023/12/30 04:40:34;;;;;;;;;;;;;;;16.13;49.41;101180.53;5058373;28;1009;-58
2023/12/30 04:43:00;;;;;;;;;;;;;;;15.87;50.13;101183.03;5066715;28;1125;-58
2023/12/30 04:45:27;;;;;;;;;;;;;;;15.60;50.77;101183.84;5060244;28;1337;-57
2023/12/30 04:47:53;;;;;;;;;;;;;;;17.08;47.09;101183.44;5077558;28;1135;-58
2023/12/30 04:50:19;;;;;;;;;;;;;;;16.96;47.12;101177.34;5060533;28;1373;-58
2023/12/30 04:52:44;;;;;;;;;;;;;;;16.15;49.13;101175.63;5077736;28;1113;-59
2023/12/30 04:55:10;;;;;;;;;;;;;;;15.86;49.90;101173.97;5041228;28;2636;-58
2023/12/30 04:57:36;;;;;;;;;;;;;;;15.60;50.88;101188.47;5052295;28;1449;-57
2023/12/30 05:00:01;;;;;;;;;;;;;;;17.05;47.24;101178.47;5052737;28;1122;-58
2023/12/30 05:02:27;;;;;;;;;;;;;;;17.23;46.59;101176.34;5071885;28;1048;-58
2023/12/30 05:04:53;;;;;;;;;;;;;;;16.35;48.74;101186.75;5059730;28;1398;-50
2023/12/30 05:07:19;;;;;;;;;;;;;;;15.98;49.77;101183.97;5064044;28;1142;-52
2023/12/30 05:09:44;;;;;;;;;;;;;;;15.73;50.49;101197.13;5063908;28;967;-52
2023/12/30 05:12:10;;;;;;;;;;;;;;;15.56;50.74;101196.38;5070411;28;1103;-48
2023/12/30 05:14:36;;;;;;;;;;;;;;;17.02;47.32;101190.00;5073075;28;1312;-54
2023/12/30 05:17:02;;;;;;;;;;;;;;;17.06;47.08;101195.78;5065456;28;2035;-52
2023/12/30 05:19:29;;;;;;;;;;;;;;;16.20;49.11;101192.13;5070929;28;1143;-51
2023/12/30 05:21:55;;;;;;;;;;;;;;;15.88;50.04;101198.41;5077008;28;1114;-50
2023/12/30 05:24:21;;;;;;;;;;;;;;;16.48;48.85;101198.38;5076835;28;2256;-52
2023/12/30 05:26:48;;;;;;;;;;;;;;;17.24;46.83;101205.50;5068866;28;1099;-52
2023/12/30 05:29:14;;;;;;;;;;;;;;;16.22;48.86;101196.25;5072463;28;1059;-51
2023/12/30 05:31:39;;;;;;;;;;;;;;;17.10;47.55;101202.41;5068471;28;1027;-48
2023/12/30 05:34:06;;;;;;;;;;;;;;;16.57;48.47;101194.06;5070205;28;1059;-54
2023/12/30 05:36:32;;;;;;;;;;;;;;;16.05;48.19;101199.13;5065258;28;1929;-53
2023/12/30 05:38:58;;;;;;;;;;;;;;;17.18;47.39;101203.81;5068954;28;1244;-52
2023/12/30 05:41:23;;;;;;;;;;;;;;;16.53;48.42;101193.75;5070854;28;1047;-52
2023/12/30 05:43:49;;;;;;;;;;;;;;;16.10;48.42;101189.28;5075137;28;895;-53
2023/12/30 05:46:15;;;;;;;;;;;;;;;16.02;48.57;101193.31;5075205;28;1072;-49
2023/12/30 05:48:41;;;;;;;;;;;;;;;17.39;47.08;101191.81;5073989;28;1239;-52
2023/12/30 05:51:07;;;;;;;;;;;;;;;16.33;48.40;101186.22;5073846;28;1118;-49
2023/12/30 05:53:32;;;;;;;;;;;;;;;16.11;48.28;101199.19;5075745;28;1907;-50
2023/12/30 05:55:59;;;;;;;;;;;;;;;17.60;46.49;101189.16;5069546;28;1906;-47
2023/12/30 05:58:24;;;;;;;;;;;;;;;16.48;48.32;101201.13;5069258;28;1583;-48
2023/12/30 06:00:50;;;;;;;;;;;;;;;16.34;48.61;101187.03;5073729;28;1147;-51
2023/12/30 06:03:15;;;;;;;;;;;;;;;17.62;46.65;101197.94;5076187;28;1059;-47
2023/12/30 06:05:41;;;;;;;;;;;;;;;16.57;48.25;101191.31;5074781;28;1078;-51
2023/12/30 06:08:06;;;;;;;;;;;;;;;16.20;47.79;101192.13;5056781;28;1598;-51
2023/12/30 06:10:32;;;;;;;;;;;;;;;17.11;48.12;101209.56;5072680;28;861;-50
2023/12/30 06:12:58;;;;;;;;;;;;;;;16.83;48.28;101202.47;5076193;28;1147;-52
2023/12/30 06:15:24;;;;;;;;;;;;;;;16.47;49.32;101210.47;5074572;28;1972;-47
2023/12/30 06:17:50;;;;;;;;;;;;;;;17.92;46.12;101210.16;5064256;28;1063;-50
2023/12/30 06:20:15;;;;;;;;;;;;;;;16.76;48.17;101206.28;5074401;28;1011;-50
2023/12/30 06:22:41;;;;;;;;;;;;;;;16.31;47.72;101206.75;5063588;28;1010;-52
2023/12/30 06:25:07;;;;;;;;;;;;;;;17.22;47.81;101208.53;5072186;28;2506;-51
2023/12/30 06:27:32;;;;;;;;;;;;;;;16.64;48.20;101204.84;5064247;28;1095;-44
2023/12/30 06:29:58;;;;;;;;;;;;;;;16.22;48.12;101207.22;5075379;28;1160;-51
2023/12/30 06:32:23;;;;;;;;;;;;;;;17.41;47.63;101217.13;5067883;28;1000;-51
2023/12/30 06:34:49;;;;;;;;;;;;;;;16.71;48.27;101217.25;5070325;28;1016;-49
2023/12/30 06:37:15;;;;;;;;;;;;;;;16.25;48.25;101220.44;5068519;28;1909;-50
2023/12/30 06:39:40;;;;;;;;;;;;;;;17.60;47.05;101216.66;5069206;28;1249;-49
2023/12/30 06:42:06;;;;;;;;;;;;;;;16.84;48.33;101220.63;5075475;28;1064;-49
2023/12/30 06:44:31;;;;;;;;;;;;;;;16.42;47.81;101214.00;5064580;28;1114;-49
2023/12/30 06:46:57;;;;;;;;;;;;;;;17.20;47.85;101223.63;5066743;28;1123;-48
2023/12/30 06:49:22;;;;;;;;;;;;;;;17.01;48.00;101226.81;5066892;28;1333;-46
2023/12/30 06:51:48;;;;;;;;;;;;;;;16.46;48.26;101231.59;5067539;28;1028;-49
2023/12/30 06:54:13;;;;;;;;;;;;;;;16.27;47.41;101230.31;5074995;28;1866;-52
2023/12/30 06:56:39;;;;;;;;;;;;;;;17.23;47.46;101231.31;5062839;28;1914;-49
2023/12/30 06:59:05;;;;;;;;;;;;;;;16.49;48.26;101231.06;5062064;28;1056;-50
2023/12/30 07:01:30;;;;;;;;;;;;;;;16.31;48.06;101228.72;5050667;28;1280;-51
2023/12/30 07:03:56;;;;;;;;;;;;;;;17.86;46.80;101230.47;5064288;28;1374;-50
2023/12/30 07:06:21;;;;;;;;;;;;;;;16.83;48.15;101227.19;5075349;28;881;-51
2023/12/30 07:08:47;;;;;;;;;;;;;;;16.50;48.11;101234.66;5069948;28;1131;-49
2023/12/30 07:11:12;;;;;;;;;;;;;;;17.61;46.83;101230.13;5069756;28;1222;-50
2023/12/30 07:13:38;;;;;;;;;;;;;;;16.69;48.16;101227.66;5074901;28;1231;-46
2023/12/30 07:16:04;;;;;;;;;;;;;;;16.39;47.67;101223.56;5057135;28;2010;-51
2023/12/30 07:18:29;;;;;;;;;;;;;;;16.21;47.51;101232.19;5075645;28;1258;-46
2023/12/30 07:20:55;;;;;;;;;;;;;;;17.42;47.57;101232.53;5075020;28;1171;-49
2023/12/30 07:23:21;;;;;;;;;;;;;;;16.55;48.32;101242.91;5076119;28;2318;-46
2023/12/30 07:25:47;;;;;;;;;;;;;;;16.20;48.02;101242.34;5076444;28;1219;-51
2023/12/30 07:28:13;;;;;;;;;;;;;;;17.20;47.92;101243.69;5070924;28;1286;-52
2023/12/30 07:30:39;;;;;;;;;;;;;;;16.51;48.42;101239.03;5078885;28;1243;-52
2023/12/30 07:33:04;;;;;;;;;;;;;;;16.28;47.35;101232.81;5078452;28;1357;-50
2023/12/30 07:35:30;;;;;;;;;;;;;;;16.89;48.39;101237.19;5078319;28;1909;-54
2023/12/30 07:37:56;;;;;;;;;;;;;;;17.00;48.10;101236.16;5079297;28;1199;-51
2023/12/30 07:40:21;;;;;;;;;;;;;;;16.90;48.85;101230.56;5073604;28;1065;-53
2023/12/30 07:42:47;;;;;;;;;;;;;;;18.34;45.88;101231.16;5068399;28;1203;-53
2023/12/30 07:45:13;;;;;;;;;;;;;;;17.03;48.00;101241.09;5076991;28;1282;-51
2023/12/30 07:47:39;;;;;;;;;;;;;;;16.67;47.56;101238.06;5078499;28;1163;-49
2023/12/30 07:50:05;;;;;;;;;;;;;;;16.43;47.46;101232.94;5078923;28;1068;-50
2023/12/30 07:52:30;;;;;;;;;;;;;;;17.70;47.19;101238.69;5078056;28;1258;-52
2023/12/30 07:54:56;;;;;;;;;;;;;;;16.94;48.19;101242.69;5077844;28;2393;-51
2023/12/30 07:57:22;;;;;;;;;;;;;;;16.54;47.85;101247.59;5076089;28;1914;-50
2023/12/30 07:59:49;;;;;;;;;;;;;;;16.51;47.65;101244.53;5078235;28;1054;-52
2023/12/30 08:02:14;;;;;;;;;;;;;;;17.70;47.18;101246.94;5071657;28;1107;-48
2023/12/30 08:04:43;;;;;;;;;;;;;;;16.77;48.34;101251.91;5060280;28;1151;-50
2023/12/30 08:07:09;;;;;;;;;;;;;;;16.45;47.89;101251.06;5064608;28;1234;-50
2023/12/30 08:09:36;;;;;;;;;;;;;;;17.05;48.08;101255.38;5073170;28;1085;-53
2023/12/30 08:12:02;;;;;;;;;;;;;;;17.35;47.81;101258.59;5078170;28;1211;-52
2023/12/30 08:14:28;;;;;;;;;;;;;;;16.67;48.23;101257.28;5078194;28;1218;-52
2023/12/30 08:16:53;;;;;;;;;;;;;;;16.66;48.61;101258.41;5075796;28;1986;-48
2023/12/30 08:19:19;;;;;;;;;;;;;;;17.44;47.70;101257.81;5077924;28;1067;-51
2023/12/30 08:21:44;;;;;;;;;;;;;;;16.77;48.00;101254.66;5076380;28;1187;-50
2023/12/30 08:24:11;;;;;;;;;;;;;;;16.50;47.75;101262.09;5077745;28;1765;-50
2023/12/30 08:26:37;;;;;;;;;;;;;;;17.65;47.38;101257.09;5071558;28;1067;-51
2023/12/30 08:29:02;;;;;;;;;;;;;;;16.71;48.57;101247.44;5070707;28;1127;-49
2023/12/30 08:31:28;;;;;;;;;;;;;;;16.56;47.75;101261.03;5065080;28;1031;-48
2023/12/30 08:33:53;;;;;;;;;;;;;;;17.54;47.48;101247.97;5070528;28;1176;-51
2023/12/30 08:36:19;;;;;;;;;;;;;;;16.80;48.30;101252.44;5072186;28;1913;-48
2023/12/30 08:38:45;;;;;;;;;;;;;;;16.43;47.91;101254.91;5070809;28;1284;-50
2023/12/30 08:41:14;;;;;;;;;;;;;;;16.20;47.83;101247.84;5078001;28;1336;-50
2023/12/30 08:43:43;;;;;;;;;;;;;;;17.76;47.08;101245.03;5059874;28;1059;-50
2023/12/30 08:46:09;;;;;;;;;;;;;;;16.72;48.46;101240.06;5074847;28;853;-53
2023/12/30 08:48:36;;;;;;;;;;;;;;;16.99;48.62;101239.16;5070412;28;1035;-51
2023/12/30 08:51:02;;;;;;;;;;;;;;;17.22;47.91;101238.75;5071520;28;1156;-49
2023/12/30 08:53:28;;;;;;;;;;;;;;;16.67;47.92;101235.31;5072228;28;1804;-51
2023/12/30 08:55:55;;;;;;;;;;;;;;;16.88;48.51;101230.00;5071128;28;1909;-47
2023/12/30 08:58:24;;;;;;;;;;;;;;;18.02;46.34;101239.59;5076872;28;1337;-51
2023/12/30 09:00:50;;;;;;;;;;;;;;;16.97;48.26;101225.69;5077239;28;1301;-49
2023/12/30 09:03:16;;;;;;;;;;;;;;;16.65;47.78;101218.31;5076849;28;1250;-51
2023/12/30 09:05:42;;;;;;;;;;;;;;;17.84;47.07;101218.91;5077250;28;1354;-53
2023/12/30 09:08:07;;;;;;;;;;;;;;;16.87;48.48;101206.34;5076914;28;1321;-51
2023/12/30 09:10:33;;;;;;;;;;;;;;;16.63;47.71;101204.00;5067290;28;981;-52
2023/12/30 09:12:58;;;;;;;;;;;;;;;17.66;47.36;101203.75;5063601;28;1137;-53
2023/12/30 09:15:24;;;;;;;;;;;;;;;16.84;48.13;101202.22;5077188;28;1910;-50
2023/12/30 09:17:51;;;;;;;;;;;;;;;16.52;48.15;101194.03;5061763;28;1289;-50
2023/12/30 09:20:16;;;;;;;;;;;;;;;18.11;46.14;101194.78;5065908;28;1192;-48
2023/12/30 09:22:42;;;;;;;;;;;;;;;17.04;47.87;101185.06;5073137;28;870;-52
2023/12/30 09:25:08;;;;;;;;;;;;;;;16.70;47.63;101188.13;5068733;28;2663;-51
2023/12/30 09:27:33;;;;;;;;;;;;;;;16.52;47.15;101185.78;5057243;28;1004;-52
2023/12/30 09:29:59;;;;;;;;;;;;;;;17.18;47.90;101181.81;5065341;28;1059;-53
2023/12/30 09:32:25;;;;;;;;;;;;;;;17.12;48.19;101172.72;5076444;28;1078;-48
2023/12/30 09:34:50;;;;;;;;;;;;;;;16.57;47.91;101163.88;5066152;28;892;-50
2023/12/30 09:37:17;;;;;;;;;;;;;;;16.40;47.64;101170.34;5068888;28;1993;-52
2023/12/30 09:39:43;;;;;;;;;;;;;;;17.52;47.61;101176.75;5058681;28;1113;-50
2023/12/30 09:42:09;;;;;;;;;;;;;;;16.87;48.46;101170.66;5076215;28;1026;-52
2023/12/30 09:44:34;;;;;;;;;;;;;;;16.50;47.81;101164.09;5076452;28;999;-46
2023/12/30 09:47:01;;;;;;;;;;;;;;;16.36;47.10;101162.91;5068843;28;1005;-51
2023/12/30 09:49:26;;;;;;;;;;;;;;;16.46;47.54;101164.91;5057216;28;1067;-48
2023/12/30 09:51:52;;;;;;;;;;;;;;;17.24;47.79;101153.28;5058239;28;1044;-49
2023/12/30 09:54:17;;;;;;;;;;;;;;;16.65;48.03;101157.91;5076091;28;2362;-48
2023/12/30 09:56:43;;;;;;;;;;;;;;;16.57;48.51;101150.97;5051625;28;1909;-54
2023/12/30 09:59:09;;;;;;;;;;;;;;;17.52;47.27;101149.25;5038331;28;988;-51
2023/12/30 10:01:34;;;;;;;;;;;;;;;16.69;48.26;101149.94;5056422;28;1004;-50
2023/12/30 10:04:01;;;;;;;;;;;;;;;16.38;47.82;101139.59;5069386;28;1333;-51
2023/12/30 10:06:27;;;;;;;;;;;;;;;17.71;46.94;101135.81;5069949;28;1317;-51
2023/12/30 10:08:52;;;;;;;;;;;;;;;16.82;48.16;101133.00;5040329;28;1013;-50
2023/12/30 10:11:18;;;;;;;;;;;;;;;16.88;48.69;101128.34;5048066;28;1048;-50
2023/12/30 10:13:44;;;;;;;;;;;;;;;17.36;47.52;101129.16;5067888;28;1107;-52
2023/12/30 10:16:09;;;;;;;;;;;;;;;16.70;48.25;101122.22;5070293;28;1894;-48
2023/12/30 10:18:35;;;;;;;;;;;;;;;16.46;47.87;101127.28;5075762;28;1135;-47
2023/12/30 10:21:02;;;;;;;;;;;;;;;17.93;46.40;101127.34;5064639;28;1075;-52
2023/12/30 10:23:28;;;;;;;;;;;;;;;16.93;48.13;101123.75;5052867;28;2475;-46
2023/12/30 10:25:54;;;;;;;;;;;;;;;16.63;47.70;101129.03;5056000;28;1084;-47
2023/12/30 10:28:20;;;;;;;;;;;;;;;16.42;47.01;101123.41;5058429;28;1047;-47
2023/12/30 10:30:47;;;;;;;;;;;;;;;16.29;46.57;101113.72;5075748;28;1066;-48
2023/12/30 10:33:13;;;;;;;;;;;;;;;17.23;47.48;101107.66;5072060;28;1110;-48
2023/12/30 10:35:39;;;;;;;;;;;;;;;17.08;48.24;101108.41;5065110;28;1977;-48
2023/12/30 10:38:05;;;;;;;;;;;;;;;16.67;48.17;101106.28;5074886;28;922;-53
2023/12/30 10:40:31;;;;;;;;;;;;;;;16.85;48.19;101106.94;5058010;28;1013;-52
2023/12/30 10:42:57;;;;;;;;;;;;;;;17.96;46.40;101098.44;5075432;28;1042;-54
2023/12/30 10:45:23;;;;;;;;;;;;;;;16.92;48.07;101089.13;5056046;28;945;-50
2023/12/30 10:47:48;;;;;;;;;;;;;;;16.60;47.79;101087.28;5055868;28;1075;-50
2023/12/30 10:50:14;;;;;;;;;;;;;;;16.74;48.12;101093.13;5062221;28;1080;-51
2023/12/30 10:52:50;;;;;;;;;;;;;;;17.60;47.21;101090.16;5056189;28;1425;-52
2023/12/30 10:55:15;;;;;;;;;;;;;;;16.75;47.97;101081.06;5072841;28;2571;-52
2023/12/30 10:57:44;;;;;;;;;;;;;;;16.53;47.42;101077.66;5071136;28;1980;-52
2023/12/30 11:00:10;;;;;;;;;;;;;;;16.34;47.39;101075.34;5066155;28;1079;-48
2023/12/30 11:02:36;;;;;;;;;;;;;;;16.96;48.07;101075.69;5069329;28;1118;-51
2023/12/30 11:05:05;;;;;;;;;;;;;;;16.51;48.08;101071.59;5057965;28;1120;-47
2023/12/30 11:07:31;;;;;;;;;;;;;;;16.87;48.15;101064.38;5050118;28;1079;-47
2023/12/30 11:09:57;;;;;;;;;;;;;;;17.07;48.07;101065.56;5037881;28;1039;-51
2023/12/30 11:12:23;;;;;;;;;;;;;;;16.63;48.11;101061.22;5050293;28;1094;-52
2023/12/30 11:14:48;;;;;;;;;;;;;;;16.46;47.43;101060.59;5044649;28;1416;-52
2023/12/30 11:17:32;;;;;;;;;;;;;;;17.30;47.75;101058.75;5035653;28;1977;-48
2023/12/30 11:20:07;;;;;;;;;;;;;;;16.93;48.21;101044.09;5051975;28;933;-52
2023/12/30 11:22:32;;;;;;;;;;;;;;;16.56;47.84;101041.41;5046201;28;1298;-52
2023/12/30 11:24:58;;;;;;;;;;;;;;;16.95;48.14;101034.75;5047009;28;2543;-50
2023/12/30 11:27:23;;;;;;;;;;;;;;;17.56;47.24;101042.31;5055297;28;998;-48
2023/12/30 11:29:49;;;;;;;;;;;;;;;16.77;48.31;101031.34;5046931;28;1142;-50
2023/12/30 11:32:16;;;;;;;;;;;;;;;16.53;47.75;101033.72;5049247;28;1565;-50
2023/12/30 11:34:42;;;;;;;;;;;;;;;17.24;48.13;101026.88;5045100;28;877;-52
2023/12/30 11:37:07;;;;;;;;;;;;;;;17.01;48.32;101029.00;5033754;28;1902;-51
2023/12/30 11:39:38;;;;;;;;;;;;;;;17.39;47.91;101032.38;5047195;28;1044;-52
2023/12/30 11:42:04;;;;;;;;;;;;;;;18.24;45.85;101013.66;5047640;28;1507;-50
2023/12/30 11:44:30;;;;;;;;;;;;;;;17.12;47.98;101015.28;5047417;28;1448;-50
2023/12/30 11:46:56;;;;;;;;;;;;;;;16.78;47.60;101022.03;5050184;28;1102;-52
2023/12/30 11:49:22;;;;;;;;;;;;;;;16.70;47.31;101017.88;5048857;28;1253;-45
2023/12/30 11:51:48;;;;;;;;;;;;;;;17.42;47.56;101009.03;5054456;28;1228;-47
2023/12/30 11:54:14;;;;;;;;;;;;;;;16.80;48.05;101013.53;5054362;28;2229;-47
2023/12/30 11:56:39;;;;;;;;;;;;;;;16.53;47.52;101014.50;5053760;28;1941;-50
2023/12/30 11:59:05;;;;;;;;;;;;;;;17.34;47.84;101012.31;5045804;28;1286;-50
2023/12/30 12:01:31;;;;;;;;;;;;;;;16.82;48.16;101008.59;5053356;28;1347;-47
2023/12/30 12:03:57;;;;;;;;;;;;;;;16.49;47.90;101005.16;5053444;28;1247;-49
2023/12/30 12:06:22;;;;;;;;;;;;;;;17.14;48.04;101005.69;5058199;28;1092;-46
2023/12/30 12:08:48;;;;;;;;;;;;;;;17.59;47.35;101004.06;5066045;28;1271;-48
2023/12/30 12:11:14;;;;;;;;;;;;;;;16.83;48.21;101005.56;5076747;28;1279;-48
2023/12/30 12:13:39;;;;;;;;;;;;;;;16.54;47.72;101007.94;5074027;28;1248;-47
2023/12/30 12:16:06;;;;;;;;;;;;;;;17.51;47.51;100998.31;5067160;28;1906;-49
2023/12/30 12:18:32;;;;;;;;;;;;;;;17.07;48.08;100992.22;5072310;28;1183;-47
2023/12/30 12:20:59;;;;;;;;;;;;;;;16.72;47.98;100996.47;5077963;28;1003;-48
2023/12/30 12:23:25;;;;;;;;;;;;;;;16.57;47.21;101001.91;5067560;28;2553;-47
2023/12/30 12:25:50;;;;;;;;;;;;;;;17.94;46.59;100996.13;5066947;28;1012;-46
2023/12/30 12:28:17;;;;;;;;;;;;;;;16.95;48.19;100990.81;5056573;28;1309;-50
2023/12/30 12:30:43;;;;;;;;;;;;;;;16.61;47.81;100997.53;5067375;28;1047;-51
2023/12/30 12:33:10;;;;;;;;;;;;;;;16.76;47.78;100988.53;5075583;28;1059;-50
2023/12/30 12:35:36;;;;;;;;;;;;;;;17.51;47.44;100987.31;5067006;28;1988;-50
2023/12/30 12:38:02;;;;;;;;;;;;;;;16.87;48.13;100989.38;5078189;28;1167;-52
2023/12/30 12:40:27;;;;;;;;;;;;;;;16.63;48.02;100984.34;5078328;28;1087;-53